sensor_id;sensor_type;location;lat;lon;timestamp;pressure;altitude;pressure_sealevel;temperature;humidity
58467;BME280;44255;49.244;7.726;2022-10-22T03:31:52;98068.25;;;11.87;100.00
58467;BME280;44255;49.244;7.726;2022-10-22T03:34:17;98065.72;;;11.84;100.00
58467;BME280;44255;49.244;7.726;2022-10-22T03:36:43;98064.94;;;11.81;100.00
58467;BME280;44255;49.244;7.726;2022-10-22T03:39:11;98069.75;;;11.73;100.00
58467;BME280;44255;49.244;7.726;2022-10-22T03:41:37;98081.63;;;11.66;100.00
58467;BME280;44255;49.244;7.726;2022-10-22T03:44:03;98074.56;;;11.65;100.00
58467;BME280;44255;49.244;7.726;2022-10-22T03:46:28;98080.81;;;11.64;100.00
58467;BME280;44255;49.244;7.726;2022-10-22T03:48:54;98083.84;;;11.56;100.00
58467;BME280;44255;49.244;7.726;2022-10-22T03:51:19;98082.91;;;11.57;100.00
58467;BME280;44255;49.244;7.726;2022-10-22T03:53:44;98091.97;;;11.53;100.00
58467;BME280;44255;49.244;7.726;2022-10-22T03:56:11;98112.63;;;11.48;100.00
58467;BME280;44255;49.244;7.726;2022-10-22T03:58:37;98100.97;;;12.29;100.00
58467;BME280;44255;49.244;7.726;2022-10-22T04:01:07;98106.19;;;11.73;100.00
58467;BME280;44255;49.244;7.726;2022-10-22T04:03:33;98111.88;;;11.44;100.00
58467;BME280;44255;49.244;7.726;2022-10-22T04:06:04;98108.56;;;11.39;100.00
58467;BME280;44255;49.244;7.726;2022-10-22T04:08:29;98123.94;;;11.32;100.00
58467;BME280;44255;49.244;7.726;2022-10-22T04:10:54;98121.81;;;11.20;100.00
58467;BME280;44255;49.244;7.726;2022-10-22T04:13:20;98130.81;;;11.17;100.00
58467;BME280;44255;49.244;7.726;2022-10-22T04:15:45;98129.41;;;11.08;100.00
58467;BME280;44255;49.244;7.726;2022-10-22T04:18:10;98139.31;;;11.05;100.00
58467;BME280;44255;49.244;7.726;2022-10-22T04:20:35;98138.72;;;10.98;100.00
58467;BME280;44255;49.244;7.726;2022-10-22T04:23:01;98139.84;;;10.92;100.00
58467;BME280;44255;49.244;7.726;2022-10-22T04:25:26;98147.03;;;10.90;100.00
58467;BME280;44255;49.244;7.726;2022-10-22T04:27:51;98144.75;;;10.81;100.00
58467;BME280;44255;49.244;7.726;2022-10-22T04:30:16;98149.47;;;10.74;100.00
58467;BME280;44255;49.244;7.726;2022-10-22T04:32:42;98137.94;;;10.74;100.00
58467;BME280;44255;49.244;7.726;2022-10-22T04:35:07;98145.19;;;10.70;100.00
58467;BME280;44255;49.244;7.726;2022-10-22T04:37:32;98144.19;;;10.73;100.00
58467;BME280;44255;49.244;7.726;2022-10-22T04:39:58;98141.66;;;10.70;100.00
58467;BME280;44255;49.244;7.726;2022-10-22T04:42:23;98141.34;;;10.77;100.00
58467;BME280;44255;49.244;7.726;2022-10-22T04:44:48;98141.41;;;10.76;100.00
58467;BME280;44255;49.244;7.726;2022-10-22T04:47:14;98146.66;;;10.77;100.00
58467;BME280;44255;49.244;7.726;2022-10-22T04:49:39;98159.22;;;10.74;100.00
58467;BME280;44255;49.244;7.726;2022-10-22T04:52:04;98151.94;;;10.79;100.00
58467;BME280;44255;49.244;7.726;2022-10-22T04:54:30;98152.84;;;10.78;100.00
58467;BME280;44255;49.244;7.726;2022-10-22T04:56:55;98160.81;;;10.78;100.00
58467;BME280;44255;49.244;7.726;2022-10-22T04:59:20;98161.84;;;10.75;100.00
58467;BME280;44255;49.244;7.726;2022-10-22T05:01:45;98165.56;;;10.71;100.00
58467;BME280;44255;49.244;7.726;2022-10-22T05:04:12;98168.53;;;10.63;100.00
58467;BME280;44255;49.244;7.726;2022-10-22T05:06:38;98163.22;;;10.63;100.00
58467;BME280;44255;49.244;7.726;2022-10-22T05:09:06;98161.84;;;11.18;100.00
58467;BME280;44255;49.244;7.726;2022-10-22T05:11:34;98162.72;;;11.60;100.00
58467;BME280;44255;49.244;7.726;2022-10-22T05:14:04;98151.63;;;11.70;100.00
58467;BME280;44255;49.244;7.726;2022-10-22T05:16:31;98153.94;;;11.77;100.00
58467;BME280;44255;49.244;7.726;2022-10-22T05:18:58;98147.03;;;11.73;100.00
58467;BME280;44255;49.244;7.726;2022-10-22T05:21:25;98156.84;;;11.73;100.00
58467;BME280;44255;49.244;7.726;2022-10-22T05:23:50;98157.28;;;11.62;100.00
58467;BME280;44255;49.244;7.726;2022-10-22T05:26:19;98166.69;;;11.71;100.00
58467;BME280;44255;49.244;7.726;2022-10-22T05:28:45;98167.03;;;11.63;100.00
58467;BME280;44255;49.244;7.726;2022-10-22T05:31:12;98171.16;;;11.70;100.00
58467;BME280;44255;49.244;7.726;2022-10-22T05:33:38;98174.16;;;11.62;100.00
58467;BME280;44255;49.244;7.726;2022-10-22T05:36:05;98184.09;;;11.59;100.00
58467;BME280;44255;49.244;7.726;2022-10-22T05:38:31;98177.75;;;11.61;100.00
58467;BME280;44255;49.244;7.726;2022-10-22T05:41:05;98189.28;;;11.62;100.00
58467;BME280;44255;49.244;7.726;2022-10-22T05:43:31;98190.63;;;11.51;100.00
58467;BME280;44255;49.244;7.726;2022-10-22T05:46:01;98190.69;;;11.50;100.00
58467;BME280;44255;49.244;7.726;2022-10-22T05:48:27;98195.25;;;11.46;100.00
58467;BME280;44255;49.244;7.726;2022-10-22T05:50:52;98200.88;;;11.40;100.00
58467;BME280;44255;49.244;7.726;2022-10-22T05:53:18;98193.53;;;11.45;100.00
58467;BME280;44255;49.244;7.726;2022-10-22T05:55:43;98202.53;;;11.43;100.00
58467;BME280;44255;49.244;7.726;2022-10-22T05:58:10;98211.06;;;11.51;100.00
58467;BME280;44255;49.244;7.726;2022-10-22T06:00:36;98213.00;;;11.47;100.00
58467;BME280;44255;49.244;7.726;2022-10-22T06:03:01;98215.59;;;11.49;100.00
58467;BME280;44255;49.244;7.726;2022-10-22T06:05:26;98215.59;;;11.49;100.00
58467;BME280;44255;49.244;7.726;2022-10-22T06:07:52;98214.59;;;11.51;100.00
58467;BME280;44255;49.244;7.726;2022-10-22T06:10:19;98221.00;;;11.47;100.00
58467;BME280;44255;49.244;7.726;2022-10-22T06:12:46;98225.41;;;11.48;100.00
58467;BME280;44255;49.244;7.726;2022-10-22T06:15:13;98220.13;;;11.47;100.00
58467;BME280;44255;49.244;7.726;2022-10-22T06:17:38;98226.44;;;11.44;100.00
58467;BME280;44255;49.244;7.726;2022-10-22T06:20:04;98220.44;;;11.39;100.00
58467;BME280;44255;49.244;7.726;2022-10-22T06:22:30;98224.56;;;11.46;100.00
58467;BME280;44255;49.244;7.726;2022-10-22T06:24:55;98229.38;;;11.38;100.00
58467;BME280;44255;49.244;7.726;2022-10-22T06:27:20;98233.19;;;11.53;100.00
58467;BME280;44255;49.244;7.726;2022-10-22T06:29:47;98236.72;;;11.53;100.00
58467;BME280;44255;49.244;7.726;2022-10-22T06:32:12;98238.50;;;11.53;100.00
58467;BME280;44255;49.244;7.726;2022-10-22T06:34:37;98247.38;;;11.53;100.00
58467;BME280;44255;49.244;7.726;2022-10-22T06:37:03;98243.63;;;11.58;100.00
58467;BME280;44255;49.244;7.726;2022-10-22T06:39:28;98247.09;;;11.60;100.00
58467;BME280;44255;49.244;7.726;2022-10-22T06:41:53;98248.84;;;11.61;100.00
58467;BME280;44255;49.244;7.726;2022-10-22T06:44:19;98261.38;;;11.59;100.00
58467;BME280;44255;49.244;7.726;2022-10-22T06:46:48;98259.91;;;11.51;100.00
58467;BME280;44255;49.244;7.726;2022-10-22T06:49:14;98264.59;;;11.67;100.00
58467;BME280;44255;49.244;7.726;2022-10-22T06:51:39;98270.00;;;11.64;100.00
58467;BME280;44255;49.244;7.726;2022-10-22T06:54:05;98267.03;;;11.72;100.00
58467;BME280;44255;49.244;7.726;2022-10-22T06:56:30;98268.56;;;11.77;100.00
58467;BME280;44255;49.244;7.726;2022-10-22T06:58:56;98271.22;;;11.77;100.00
58467;BME280;44255;49.244;7.726;2022-10-22T07:01:25;98274.03;;;11.74;100.00
58467;BME280;44255;49.244;7.726;2022-10-22T07:03:51;98283.94;;;11.71;100.00
58467;BME280;44255;49.244;7.726;2022-10-22T07:06:18;98284.88;;;11.70;100.00
58467;BME280;44255;49.244;7.726;2022-10-22T07:08:43;98285.50;;;11.76;100.00
58467;BME280;44255;49.244;7.726;2022-10-22T07:11:17;98285.69;;;11.72;100.00
58467;BME280;44255;49.244;7.726;2022-10-22T07:13:44;98287.34;;;11.74;100.00
58467;BME280;44255;49.244;7.726;2022-10-22T07:16:10;98287.78;;;11.86;100.00
58467;BME280;44255;49.244;7.726;2022-10-22T07:18:36;98289.22;;;11.93;100.00
58467;BME280;44255;49.244;7.726;2022-10-22T07:21:02;98301.28;;;11.81;100.00
58467;BME280;44255;49.244;7.726;2022-10-22T07:23:28;98314.56;;;11.83;100.00
58467;BME280;44255;49.244;7.726;2022-10-22T07:25:53;98314.56;;;11.83;100.00
58467;BME280;44255;49.244;7.726;2022-10-22T07:28:19;98312.28;;;11.73;100.00
58467;BME280;44255;49.244;7.726;2022-10-22T07:30:45;98318.69;;;11.69;100.00
58467;BME280;44255;49.244;7.726;2022-10-22T07:33:10;98328.66;;;10.24;100.00
58467;BME280;44255;49.244;7.726;2022-10-22T07:35:37;98323.47;;;10.21;100.00
58467;BME280;44255;49.244;7.726;2022-10-22T07:38:03;98332.19;;;10.24;100.00
58467;BME280;44255;49.244;7.726;2022-10-22T07:40:29;98340.84;;;10.31;100.00
58467;BME280;44255;49.244;7.726;2022-10-22T07:42:54;98341.41;;;10.39;100.00
58467;BME280;44255;49.244;7.726;2022-10-22T07:45:19;98344.59;;;10.51;100.00
58467;BME280;44255;49.244;7.726;2022-10-22T07:47:46;98352.97;;;10.64;100.00
58467;BME280;44255;49.244;7.726;2022-10-22T07:50:11;98353.88;;;10.87;100.00
58467;BME280;44255;49.244;7.726;2022-10-22T07:52:36;98352.50;;;11.00;100.00
58467;BME280;44255;49.244;7.726;2022-10-22T07:55:02;98361.63;;;11.17;100.00
58467;BME280;44255;49.244;7.726;2022-10-22T07:57:27;98357.72;;;11.26;100.00
58467;BME280;44255;49.244;7.726;2022-10-22T07:59:53;98360.78;;;11.38;100.00
58467;BME280;44255;49.244;7.726;2022-10-22T08:02:18;98356.13;;;11.44;100.00
58467;BME280;44255;49.244;7.726;2022-10-22T08:04:43;98363.53;;;12.84;100.00
58467;BME280;44255;49.244;7.726;2022-10-22T08:07:08;98354.03;;;13.34;100.00
58467;BME280;44255;49.244;7.726;2022-10-22T08:09:34;98355.78;;;13.54;100.00
58467;BME280;44255;49.244;7.726;2022-10-22T08:11:59;98354.88;;;13.73;100.00
58467;BME280;44255;49.244;7.726;2022-10-22T08:14:24;98356.94;;;13.85;100.00
58467;BME280;44255;49.244;7.726;2022-10-22T08:16:50;98361.13;;;13.91;100.00
58467;BME280;44255;49.244;7.726;2022-10-22T08:19:15;98359.84;;;13.98;100.00
58467;BME280;44255;49.244;7.726;2022-10-22T08:21:43;98369.38;;;14.04;100.00
58467;BME280;44255;49.244;7.726;2022-10-22T08:24:09;98370.66;;;14.14;100.00
58467;BME280;44255;49.244;7.726;2022-10-22T08:26:34;98365.75;;;14.05;100.00
58467;BME280;44255;49.244;7.726;2022-10-22T08:29:00;98366.34;;;13.57;100.00
58467;BME280;44255;49.244;7.726;2022-10-22T08:31:25;98375.59;;;12.92;100.00
58467;BME280;44255;49.244;7.726;2022-10-22T08:33:50;98374.84;;;12.89;100.00
58467;BME280;44255;49.244;7.726;2022-10-22T08:36:15;98376.38;;;12.94;100.00
58467;BME280;44255;49.244;7.726;2022-10-22T08:38:41;98369.75;;;13.78;100.00
58467;BME280;44255;49.244;7.726;2022-10-22T08:41:15;98366.84;;;13.83;100.00
58467;BME280;44255;49.244;7.726;2022-10-22T08:46:34;98371.13;;;14.22;100.00
58467;BME280;44255;49.244;7.726;2022-10-22T08:49:06;98376.63;;;14.19;100.00
58467;BME280;44255;49.244;7.726;2022-10-22T08:51:34;98378.69;;;14.32;100.00
58467;BME280;44255;49.244;7.726;2022-10-22T08:54:17;98378.66;;;14.49;100.00
58467;BME280;44255;49.244;7.726;2022-10-22T08:57:32;98384.34;;;14.26;100.00
58467;BME280;44255;49.244;7.726;2022-10-22T08:59:34;98393.72;;;13.62;100.00
58467;BME280;44255;49.244;7.726;2022-10-22T09:02:04;98388.84;;;13.71;100.00
58467;BME280;44255;49.244;7.726;2022-10-22T09:04:45;98392.53;;;13.68;100.00
58467;BME280;44255;49.244;7.726;2022-10-22T09:07:13;98395.13;;;13.89;100.00
58467;BME280;44255;49.244;7.726;2022-10-22T09:09:41;98396.38;;;13.99;100.00
58467;BME280;44255;49.244;7.726;2022-10-22T09:12:14;98396.31;;;14.18;100.00
58467;BME280;44255;49.244;7.726;2022-10-22T09:14:40;98387.66;;;14.31;100.00
58467;BME280;44255;49.244;7.726;2022-10-22T09:17:15;98395.28;;;14.56;100.00
58467;BME280;44255;49.244;7.726;2022-10-22T09:20:14;98397.63;;;14.45;100.00
58467;BME280;44255;49.244;7.726;2022-10-22T09:22:50;98395.13;;;14.42;100.00
58467;BME280;44255;49.244;7.726;2022-10-22T09:25:25;98404.41;;;14.34;100.00
58467;BME280;44255;49.244;7.726;2022-10-22T09:27:52;98412.53;;;14.33;100.00
58467;BME280;44255;49.244;7.726;2022-10-22T09:30:24;98404.94;;;14.41;100.00
58467;BME280;44255;49.244;7.726;2022-10-22T09:32:54;98409.53;;;15.40;100.00
58467;BME280;44255;49.244;7.726;2022-10-22T09:35:23;98408.31;;;15.78;100.00
58467;BME280;44255;49.244;7.726;2022-10-22T09:37:52;98407.25;;;16.13;100.00
58467;BME280;44255;49.244;7.726;2022-10-22T09:40:17;98408.66;;;16.34;100.00
58467;BME280;44255;49.244;7.726;2022-10-22T09:42:44;98410.66;;;16.31;100.00
58467;BME280;44255;49.244;7.726;2022-10-22T09:45:16;98406.44;;;16.27;100.00
58467;BME280;44255;49.244;7.726;2022-10-22T09:47:43;98396.63;;;16.56;100.00
58467;BME280;44255;49.244;7.726;2022-10-22T09:52:33;98412.06;;;16.53;100.00
58467;BME280;44255;49.244;7.726;2022-10-22T09:55:02;98409.06;;;16.43;100.00
58467;BME280;44255;49.244;7.726;2022-10-22T09:57:27;98412.69;;;16.27;100.00
58467;BME280;44255;49.244;7.726;2022-10-22T09:59:53;98419.84;;;15.32;100.00
58467;BME280;44255;49.244;7.726;2022-10-22T10:02:22;98418.28;;;15.28;100.00
58467;BME280;44255;49.244;7.726;2022-10-22T10:04:53;98423.88;;;15.39;100.00
58467;BME280;44255;49.244;7.726;2022-10-22T10:07:26;98413.78;;;15.44;100.00
58467;BME280;44255;49.244;7.726;2022-10-22T10:09:54;98405.75;;;15.44;100.00
58467;BME280;44255;49.244;7.726;2022-10-22T10:12:44;98414.41;;;15.33;100.00
58467;BME280;44255;49.244;7.726;2022-10-22T10:15:23;98416.97;;;15.35;100.00
58467;BME280;44255;49.244;7.726;2022-10-22T10:18:04;98419.34;;;15.41;100.00
58467;BME280;44255;49.244;7.726;2022-10-22T10:23:33;98416.63;;;15.73;100.00
58467;BME280;44255;49.244;7.726;2022-10-22T10:26:08;98413.72;;;15.94;100.00
58467;BME280;44255;49.244;7.726;2022-10-22T10:31:13;98421.28;;;15.86;100.00
58467;BME280;44255;49.244;7.726;2022-10-22T10:36:20;98423.19;;;16.00;100.00
58467;BME280;44255;49.244;7.726;2022-10-22T10:42:25;98416.34;;;16.10;98.79
58467;BME280;44255;49.244;7.726;2022-10-22T10:44:38;98426.88;;;16.29;99.71
58467;BME280;44255;49.244;7.726;2022-10-22T10:47:12;98432.88;;;16.49;100.00
58467;BME280;44255;49.244;7.726;2022-10-22T10:49:42;98425.81;;;16.62;95.00
58467;BME280;44255;49.244;7.726;2022-10-22T10:55:18;98411.66;;;17.04;90.93
58467;BME280;44255;49.244;7.726;2022-10-22T10:58:09;98416.34;;;17.15;90.81
58467;BME280;44255;49.244;7.726;2022-10-22T11:00:46;98423.56;;;17.00;87.52
58467;BME280;44255;49.244;7.726;2022-10-22T11:06:08;98430.94;;;17.40;88.23
58467;BME280;44255;49.244;7.726;2022-10-22T11:08:39;98406.97;;;17.64;86.61
58467;BME280;44255;49.244;7.726;2022-10-22T11:11:18;98404.47;;;17.61;82.80
58467;BME280;44255;49.244;7.726;2022-10-22T11:13:50;98403.56;;;17.47;82.54
58467;BME280;44255;49.244;7.726;2022-10-22T11:16:22;98406.44;;;17.44;81.37
58467;BME280;44255;49.244;7.726;2022-10-22T11:19:06;98406.59;;;17.56;81.62
58467;BME280;44255;49.244;7.726;2022-10-22T11:24:29;98402.63;;;17.76;76.42
58467;BME280;44255;49.244;7.726;2022-10-22T11:27:16;98401.78;;;17.61;78.09
58467;BME280;44255;49.244;7.726;2022-10-22T11:29:51;98398.41;;;17.72;78.71
58467;BME280;44255;49.244;7.726;2022-10-22T11:32:20;98403.06;;;17.83;80.47
58467;BME280;44255;49.244;7.726;2022-10-22T11:34:56;98398.03;;;17.91;77.39
58467;BME280;44255;49.244;7.726;2022-10-22T11:37:23;98403.31;;;18.07;77.84
58467;BME280;44255;49.244;7.726;2022-10-22T11:39:53;98396.97;;;17.94;77.10
58467;BME280;44255;49.244;7.726;2022-10-22T11:42:22;98386.28;;;18.07;75.89
58467;BME280;44255;49.244;7.726;2022-10-22T11:47:34;98388.75;;;18.50;75.19
58467;BME280;44255;49.244;7.726;2022-10-22T11:50:26;98378.19;;;18.60;75.82
58467;BME280;44255;49.244;7.726;2022-10-22T11:53:04;98371.25;;;18.95;74.47
58467;BME280;44255;49.244;7.726;2022-10-22T11:58:05;98364.44;;;19.28;73.67
58467;BME280;44255;49.244;7.726;2022-10-22T12:00:47;98378.41;;;18.83;70.52
58467;BME280;44255;49.244;7.726;2022-10-22T12:03:18;98369.31;;;18.97;71.54
58467;BME280;44255;49.244;7.726;2022-10-22T12:06:22;98361.41;;;19.32;69.98
58467;BME280;44255;49.244;7.726;2022-10-22T12:16:43;98364.94;;;20.78;64.23
58467;BME280;44255;49.244;7.726;2022-10-22T12:21:36;98357.41;;;21.72;59.74
58467;BME280;44255;49.244;7.726;2022-10-22T12:24:02;98360.03;;;21.51;57.88
58467;BME280;44255;49.244;7.726;2022-10-22T12:26:29;98362.16;;;21.13;58.73
58467;BME280;44255;49.244;7.726;2022-10-22T12:28:57;98364.94;;;21.57;57.82
58467;BME280;44255;49.244;7.726;2022-10-22T12:31:23;98358.34;;;21.94;55.58
58467;BME280;44255;49.244;7.726;2022-10-22T12:33:55;98358.13;;;22.82;56.53
58467;BME280;44255;49.244;7.726;2022-10-22T12:36:20;98354.84;;;22.88;53.06
58467;BME280;44255;49.244;7.726;2022-10-22T12:38:46;98357.56;;;23.51;52.24
58467;BME280;44255;49.244;7.726;2022-10-22T12:41:11;98356.94;;;22.75;51.87
58467;BME280;44255;49.244;7.726;2022-10-22T12:43:37;98359.16;;;22.91;52.68
58467;BME280;44255;49.244;7.726;2022-10-22T12:46:03;98358.47;;;23.81;50.05
58467;BME280;44255;49.244;7.726;2022-10-22T12:48:31;98355.19;;;24.26;50.27
58467;BME280;44255;49.244;7.726;2022-10-22T12:51:01;98345.00;;;23.69;51.30
58467;BME280;44255;49.244;7.726;2022-10-22T12:53:40;98349.16;;;23.83;50.58
58467;BME280;44255;49.244;7.726;2022-10-22T12:56:12;98349.31;;;23.21;51.46
58467;BME280;44255;49.244;7.726;2022-10-22T12:58:43;98355.38;;;21.97;52.14
58467;BME280;44255;49.244;7.726;2022-10-22T13:01:11;98353.19;;;22.12;53.46
58467;BME280;44255;49.244;7.726;2022-10-22T13:03:44;98354.16;;;21.23;54.49
58467;BME280;44255;49.244;7.726;2022-10-22T13:09:04;98350.63;;;22.32;53.23
58467;BME280;44255;49.244;7.726;2022-10-22T13:11:37;98345.09;;;22.76;51.81
58467;BME280;44255;49.244;7.726;2022-10-22T13:14:04;98343.44;;;22.21;53.19
58467;BME280;44255;49.244;7.726;2022-10-22T13:16:30;98342.78;;;22.71;51.39
58467;BME280;44255;49.244;7.726;2022-10-22T13:18:57;98342.00;;;21.84;53.56
58467;BME280;44255;49.244;7.726;2022-10-22T13:21:35;98342.84;;;22.17;52.70
58467;BME280;44255;49.244;7.726;2022-10-22T13:24:24;98336.88;;;22.02;53.99
58467;BME280;44255;49.244;7.726;2022-10-22T13:26:50;98333.47;;;22.43;53.42
58467;BME280;44255;49.244;7.726;2022-10-22T13:29:18;98333.44;;;23.16;50.74
58467;BME280;44255;49.244;7.726;2022-10-22T13:31:46;98352.28;;;23.59;50.87
58467;BME280;44255;49.244;7.726;2022-10-22T13:34:16;98366.31;;;24.82;49.50
58467;BME280;44255;49.244;7.726;2022-10-22T13:36:42;98373.91;;;26.81;42.18
58467;BME280;44255;49.244;7.726;2022-10-22T13:39:32;98367.31;;;28.38;40.64
58467;BME280;44255;49.244;7.726;2022-10-22T13:41:59;98316.94;;;27.56;41.42
58467;BME280;44255;49.244;7.726;2022-10-22T13:44:24;98351.47;;;26.07;43.85
58467;BME280;44255;49.244;7.726;2022-10-22T13:46:49;98328.84;;;25.32;44.40
58467;BME280;44255;49.244;7.726;2022-10-22T13:49:17;98338.69;;;24.57;47.33
58467;BME280;44255;49.244;7.726;2022-10-22T13:51:43;98331.22;;;23.41;49.43
58467;BME280;44255;49.244;7.726;2022-10-22T13:54:20;98342.56;;;22.42;51.21
58467;BME280;44255;49.244;7.726;2022-10-22T13:56:46;98338.22;;;21.76;52.08
58467;BME280;44255;49.244;7.726;2022-10-22T13:59:12;98334.59;;;21.42;54.90
58467;BME280;44255;49.244;7.726;2022-10-22T14:01:37;98336.72;;;21.05;57.45
58467;BME280;44255;49.244;7.726;2022-10-22T14:04:05;98333.63;;;20.75;58.00
58467;BME280;44255;49.244;7.726;2022-10-22T14:06:32;98342.81;;;20.50;59.40
58467;BME280;44255;49.244;7.726;2022-10-22T14:09:05;98331.69;;;20.88;58.74
58467;BME280;44255;49.244;7.726;2022-10-22T14:11:33;98336.81;;;20.57;59.27
58467;BME280;44255;49.244;7.726;2022-10-22T14:13:59;98329.47;;;21.83;56.75
58467;BME280;44255;49.244;7.726;2022-10-22T14:16:27;98327.38;;;21.64;56.60
58467;BME280;44255;49.244;7.726;2022-10-22T14:18:55;98332.44;;;21.57;57.61
58467;BME280;44255;49.244;7.726;2022-10-22T14:21:21;98337.28;;;20.63;58.85
58467;BME280;44255;49.244;7.726;2022-10-22T14:23:47;98337.81;;;20.21;60.20
58467;BME280;44255;49.244;7.726;2022-10-22T14:26:29;98331.03;;;20.03;61.74
58467;BME280;44255;49.244;7.726;2022-10-22T14:28:57;98338.19;;;19.92;63.02
58467;BME280;44255;49.244;7.726;2022-10-22T14:31:23;98341.53;;;19.95;64.10
58467;BME280;44255;49.244;7.726;2022-10-22T14:33:49;98350.00;;;19.53;65.14
58467;BME280;44255;49.244;7.726;2022-10-22T14:36:16;98351.78;;;19.41;66.88
58467;BME280;44255;49.244;7.726;2022-10-22T14:38:42;98357.00;;;19.31;67.48
58467;BME280;44255;49.244;7.726;2022-10-22T14:41:22;98343.34;;;19.46;66.58
58467;BME280;44255;49.244;7.726;2022-10-22T14:43:48;98344.91;;;19.61;66.83
58467;BME280;44255;49.244;7.726;2022-10-22T14:46:16;98351.66;;;20.52;65.23
58467;BME280;44255;49.244;7.726;2022-10-22T14:48:42;98346.41;;;20.26;66.13
58467;BME280;44255;49.244;7.726;2022-10-22T14:51:15;98356.91;;;21.00;64.81
58467;BME280;44255;49.244;7.726;2022-10-22T14:53:42;98350.75;;;20.87;66.25
58467;BME280;44255;49.244;7.726;2022-10-22T14:56:11;98348.00;;;20.64;68.41
58467;BME280;44255;49.244;7.726;2022-10-22T14:58:37;98353.47;;;20.40;72.30
58467;BME280;44255;49.244;7.726;2022-10-22T15:01:03;98357.47;;;20.23;71.61
58467;BME280;44255;49.244;7.726;2022-10-22T15:03:28;98346.09;;;19.95;72.72
58467;BME280;44255;49.244;7.726;2022-10-22T15:05:55;98352.97;;;19.74;74.16
58467;BME280;44255;49.244;7.726;2022-10-22T15:08:20;98355.41;;;19.53;75.24
58467;BME280;44255;49.244;7.726;2022-10-22T15:10:55;98361.69;;;19.41;77.75
58467;BME280;44255;49.244;7.726;2022-10-22T15:13:20;98363.97;;;19.34;76.63
58467;BME280;44255;49.244;7.726;2022-10-22T15:15:46;98356.34;;;19.28;77.01
58467;BME280;44255;49.244;7.726;2022-10-22T15:18:11;98361.13;;;19.11;78.88
58467;BME280;44255;49.244;7.726;2022-10-22T15:20:36;98356.81;;;18.96;77.95
58467;BME280;44255;49.244;7.726;2022-10-22T15:23:01;98362.66;;;18.89;80.94
58467;BME280;44255;49.244;7.726;2022-10-22T15:25:27;98354.78;;;18.47;85.54
58467;BME280;44255;49.244;7.726;2022-10-22T15:27:53;98355.75;;;18.46;85.83
58467;BME280;44255;49.244;7.726;2022-10-22T15:30:18;98355.09;;;18.30;88.29
58467;BME280;44255;49.244;7.726;2022-10-22T15:32:44;98359.81;;;18.13;90.48
58467;BME280;44255;49.244;7.726;2022-10-22T15:35:10;98353.75;;;17.82;92.66
58467;BME280;44255;49.244;7.726;2022-10-22T15:37:35;98358.72;;;17.61;94.27
58467;BME280;44255;49.244;7.726;2022-10-22T15:40:03;98360.78;;;17.57;95.25
58467;BME280;44255;49.244;7.726;2022-10-22T15:42:29;98360.34;;;17.36;98.88
58467;BME280;44255;49.244;7.726;2022-10-22T15:44:57;98360.75;;;17.30;100.00
58467;BME280;44255;49.244;7.726;2022-10-22T15:47:23;98372.50;;;17.14;100.00
58467;BME280;44255;49.244;7.726;2022-10-22T15:49:52;98364.03;;;17.06;100.00
58467;BME280;44255;49.244;7.726;2022-10-22T15:52:18;98365.16;;;16.87;100.00
58467;BME280;44255;49.244;7.726;2022-10-22T15:54:45;98370.94;;;16.81;100.00
58467;BME280;44255;49.244;7.726;2022-10-22T15:57:11;98376.50;;;16.63;100.00
58467;BME280;44255;49.244;7.726;2022-10-22T15:59:36;98370.19;;;16.34;100.00
58467;BME280;44255;49.244;7.726;2022-10-22T16:02:02;98379.22;;;16.33;100.00
58467;BME280;44255;49.244;7.726;2022-10-22T16:04:27;98376.31;;;16.21;100.00
58467;BME280;44255;49.244;7.726;2022-10-22T16:06:53;98378.59;;;16.13;100.00
58467;BME280;44255;49.244;7.726;2022-10-22T16:09:22;98371.03;;;15.89;100.00
58467;BME280;44255;49.244;7.726;2022-10-22T16:11:49;98377.63;;;15.68;100.00
58467;BME280;44255;49.244;7.726;2022-10-22T16:14:17;98379.34;;;15.53;100.00
58467;BME280;44255;49.244;7.726;2022-10-22T16:16:46;98373.91;;;15.38;100.00
58467;BME280;44255;49.244;7.726;2022-10-22T16:19:12;98377.72;;;15.34;100.00
58467;BME280;44255;49.244;7.726;2022-10-22T16:21:38;98371.31;;;15.20;100.00
58467;BME280;44255;49.244;7.726;2022-10-22T16:24:04;98373.75;;;15.09;100.00
58467;BME280;44255;49.244;7.726;2022-10-22T16:26:30;98371.91;;;15.10;100.00
58467;BME280;44255;49.244;7.726;2022-10-22T16:28:56;98376.41;;;15.09;100.00
58467;BME280;44255;49.244;7.726;2022-10-22T16:31:22;98371.56;;;15.00;100.00
58467;BME280;44255;49.244;7.726;2022-10-22T16:33:47;98384.22;;;14.80;100.00
58467;BME280;44255;49.244;7.726;2022-10-22T16:36:14;98381.59;;;14.78;100.00
58467;BME280;44255;49.244;7.726;2022-10-22T16:38:41;98387.31;;;14.72;100.00
58467;BME280;44255;49.244;7.726;2022-10-22T16:41:21;98387.13;;;14.75;100.00
58467;BME280;44255;49.244;7.726;2022-10-22T16:43:52;98392.97;;;14.66;100.00
58467;BME280;44255;49.244;7.726;2022-10-22T16:46:20;98393.53;;;14.55;100.00
58467;BME280;44255;49.244;7.726;2022-10-22T16:48:47;98395.91;;;14.44;100.00
58467;BME280;44255;49.244;7.726;2022-10-22T16:51:14;98391.50;;;14.43;100.00
58467;BME280;44255;49.244;7.726;2022-10-22T16:53:40;98393.53;;;14.37;100.00
58467;BME280;44255;49.244;7.726;2022-10-22T16:56:13;98402.44;;;14.38;100.00
58467;BME280;44255;49.244;7.726;2022-10-22T16:58:52;98413.09;;;14.40;100.00
58467;BME280;44255;49.244;7.726;2022-10-22T17:01:20;98407.63;;;14.23;100.00
58467;BME280;44255;49.244;7.726;2022-10-22T17:03:46;98409.69;;;14.18;100.00
58467;BME280;44255;49.244;7.726;2022-10-22T17:06:12;98416.06;;;14.16;100.00
58467;BME280;44255;49.244;7.726;2022-10-22T17:08:39;98417.63;;;14.20;100.00
58467;BME280;44255;49.244;7.726;2022-10-22T17:11:05;98415.97;;;14.17;100.00
58467;BME280;44255;49.244;7.726;2022-10-22T17:13:31;98419.34;;;14.03;100.00